Аскан

Карта отелей и гостиниц, располагающихся рядом с аэропортом Аскан :



Аскан Хабаровский край 47° 49' 31.08" N, 135° 7' 28.8012" E

Аскан Хабаровский край 47° 49' 31.08" N, 135° 7' 28.8012" E
Код аэродрома ИКАО: 
HGA4
Код аэродрома RU: 
ХГА4
Координаты: 
N47.82530° E135.12467°
Превышение над уровнем моря : 
66
Основная полоса: 
16/34
Курс магнитный: 
155,1/335,1
Длина основной ВПП: 
23
Ширина основной ВПП: 
23
Покрытие основной ВПП: 
Твёрдое
Тип: 
Вертодром
Освещение ВПП: 
Нет
Класс аэродрома: 
Статус: 
Действующий
Принадлежность: 
ГА
Сайт: 
E-mail аэродрома: 
Страна: 
Россия
Регион: 
Хабаровский край
Город: 
Дополнительная информация: 
Оператор: нет данных.

Найти трансфер

С помощью этой формы Вы можете найти трансфер из аэропорта Аскан в город, аэропорт или вокзал:

Карта места

Javascript is required to view this map.

Погода в аэропортах:

Авиационная погода в Кневичи

Регион: 
Погода METAR: 
UHWW 210400Z 10002MPS 060V130 5000 -SHSN BKN020CB M01/M04 Q1029 R25L/0///70 TEMPO 0400 +SHSN VV002 RMK QFE770
Время наблюдения: 
2020-02-21T04:00:00Z
Температура C: 
-1.0
Точка росы: 
-4.0
Направление ветра: 
100
Скорость ветра: 
4
Метеорологическая видимость: 
3.11
Явления погоды: 
-SHSN
Условия полета: 
MVFR
Аэропорт подробнее: 

Авиационная погода в Краснодаре

Регион: 
Погода METAR: 
URKK 210400Z VRB01MPS 5000 BR OVC003 02/02 Q1016 R05R/19//65 TEMPO 1000 BR BKN001 RMK QBB100 OBST OBSC QFE759
Время наблюдения: 
2020-02-21T04:00:00Z
Температура C: 
2.0
Точка росы: 
2.0
Направление ветра: 
0
Скорость ветра: 
2
Метеорологическая видимость: 
3.11
Явления погоды: 
BR
Условия полета: 
LIFR
Аэропорт подробнее: 

Авиационная погода в Харькове

Регион: 
Погода METAR: 
UKHH 210400Z 35001MPS 4900 BR NSC M00/M01 Q1022 R07/0///81 NOSIG
Время наблюдения: 
2020-02-21T04:00:00Z
Температура C: 
0.0
Точка росы: 
-1.0
Направление ветра: 
350
Скорость ветра: 
2
Метеорологическая видимость: 
3.04
Явления погоды: 
BR
Условия полета: 
MVFR
Аэропорт подробнее: 

Авиационная погода в Череповце

Регион: 
Погода METAR: 
ULWC 210400Z 00000MPS 2200 -SNRA BR OVC002 00/M00 Q1016 R21/490150 BECMG 3100 BR BKN003 RMK QBB060 QFE752/1003
Время наблюдения: 
2020-02-21T04:00:00Z
Температура C: 
0.0
Точка росы: 
0.0
Направление ветра: 
0
Скорость ветра: 
0
Метеорологическая видимость: 
1.37
Явления погоды: 
-SN -RA BR
Условия полета: 
LIFR
Аэропорт подробнее: